sensor_id;sensor_type;location;lat;lon;timestamp;pressure;altitude;pressure_sealevel;temperature;humidity
32789;BME280;19141;48.980;8.410;2023-01-29T05:22:36;101496.28;;;-0.23;85.16
32789;BME280;19141;48.980;8.410;2023-01-29T05:25:17;101485.72;;;-0.21;84.14
32789;BME280;19141;48.980;8.410;2023-01-29T05:27:44;101472.50;;;-0.18;82.90
32789;BME280;19141;48.980;8.410;2023-01-29T05:30:28;101455.13;;;-0.21;82.68
32789;BME280;19141;48.980;8.410;2023-01-29T05:32:54;101439.50;;;-0.22;81.73
32789;BME280;19141;48.980;8.410;2023-01-29T05:35:19;101458.13;;;-0.29;82.17
32789;BME280;19141;48.980;8.410;2023-01-29T05:37:45;101461.13;;;-0.36;82.01
32789;BME280;19141;48.980;8.410;2023-01-29T05:40:10;101477.09;;;-0.23;82.22
32789;BME280;19141;48.980;8.410;2023-01-29T05:42:36;101463.94;;;-0.22;81.07
32789;BME280;19141;48.980;8.410;2023-01-29T05:45:01;101458.38;;;-0.16;81.38
32789;BME280;19141;48.980;8.410;2023-01-29T05:47:27;101469.56;;;-0.12;81.10
32789;BME280;19141;48.980;8.410;2023-01-29T05:49:52;101472.41;;;-0.17;81.17
32789;BME280;19141;48.980;8.410;2023-01-29T05:52:17;101476.09;;;-0.21;83.28
32789;BME280;19141;48.980;8.410;2023-01-29T05:54:43;101470.16;;;-0.24;83.55
32789;BME280;19141;48.980;8.410;2023-01-29T05:57:08;101463.84;;;-0.20;82.96
32789;BME280;19141;48.980;8.410;2023-01-29T05:59:34;101478.16;;;-0.28;82.36
32789;BME280;19141;48.980;8.410;2023-01-29T06:01:59;101487.88;;;-0.30;83.12
32789;BME280;19141;48.980;8.410;2023-01-29T06:04:25;101488.03;;;-0.33;83.22
32789;BME280;19141;48.980;8.410;2023-01-29T06:06:50;101493.81;;;-0.26;83.16
32789;BME280;19141;48.980;8.410;2023-01-29T06:09:15;101498.06;;;-0.23;83.00
32789;BME280;19141;48.980;8.410;2023-01-29T06:11:41;101497.88;;;-0.20;82.70
32789;BME280;19141;48.980;8.410;2023-01-29T06:14:06;101495.22;;;-0.19;82.84
32789;BME280;19141;48.980;8.410;2023-01-29T06:16:32;101500.28;;;-0.16;83.11
32789;BME280;19141;48.980;8.410;2023-01-29T06:18:57;101504.91;;;-0.21;83.26
32789;BME280;19141;48.980;8.410;2023-01-29T06:21:23;101502.44;;;-0.24;84.35
32789;BME280;19141;48.980;8.410;2023-01-29T06:23:51;101504.78;;;-0.37;83.70
32789;BME280;19141;48.980;8.410;2023-01-29T06:26:16;101499.94;;;-0.27;84.80
32789;BME280;19141;48.980;8.410;2023-01-29T06:28:42;101496.50;;;-0.28;83.25
32789;BME280;19141;48.980;8.410;2023-01-29T06:31:09;101497.28;;;-0.25;82.54
32789;BME280;19141;48.980;8.410;2023-01-29T06:33:35;101499.19;;;-0.29;83.44
32789;BME280;19141;48.980;8.410;2023-01-29T06:36:03;101487.72;;;-0.27;82.77
32789;BME280;19141;48.980;8.410;2023-01-29T06:38:29;101487.38;;;-0.19;82.40
32789;BME280;19141;48.980;8.410;2023-01-29T06:40:56;101488.13;;;-0.17;81.45
32789;BME280;19141;48.980;8.410;2023-01-29T06:43:22;101492.34;;;-0.14;81.65
32789;BME280;19141;48.980;8.410;2023-01-29T06:45:54;101485.44;;;-0.15;82.01
32789;BME280;19141;48.980;8.410;2023-01-29T06:48:21;101488.03;;;-0.15;81.30
32789;BME280;19141;48.980;8.410;2023-01-29T06:50:46;101484.44;;;-0.13;82.58
32789;BME280;19141;48.980;8.410;2023-01-29T06:53:14;101482.69;;;-0.12;82.42
32789;BME280;19141;48.980;8.410;2023-01-29T06:55:40;101477.09;;;-0.23;82.50
32789;BME280;19141;48.980;8.410;2023-01-29T06:58:07;101482.41;;;-0.25;84.68
32789;BME280;19141;48.980;8.410;2023-01-29T07:00:33;101477.41;;;-0.30;82.12
32789;BME280;19141;48.980;8.410;2023-01-29T07:02:59;101477.94;;;-0.23;81.37
32789;BME280;19141;48.980;8.410;2023-01-29T07:05:24;101487.09;;;-0.32;81.42
32789;BME280;19141;48.980;8.410;2023-01-29T07:07:50;101492.66;;;-0.20;80.95
32789;BME280;19141;48.980;8.410;2023-01-29T07:10:15;101490.81;;;-0.18;80.88
32789;BME280;19141;48.980;8.410;2023-01-29T07:12:41;101499.28;;;-0.13;80.14
32789;BME280;19141;48.980;8.410;2023-01-29T07:15:07;101507.09;;;-0.12;80.88
32789;BME280;19141;48.980;8.410;2023-01-29T07:17:32;101504.41;;;-0.10;79.87
32789;BME280;19141;48.980;8.410;2023-01-29T07:19:57;101512.16;;;-0.09;79.36
32789;BME280;19141;48.980;8.410;2023-01-29T07:22:23;101507.69;;;-0.07;79.26
32789;BME280;19141;48.980;8.410;2023-01-29T07:24:48;101507.94;;;-0.11;80.41
32789;BME280;19141;48.980;8.410;2023-01-29T07:27:14;101510.31;;;-0.07;80.30
32789;BME280;19141;48.980;8.410;2023-01-29T07:29:39;101506.63;;;-0.03;80.00
32789;BME280;19141;48.980;8.410;2023-01-29T07:32:05;101505.16;;;-0.08;81.10
32789;BME280;19141;48.980;8.410;2023-01-29T07:34:32;101508.41;;;-0.03;79.59
32789;BME280;19141;48.980;8.410;2023-01-29T07:36:57;101500.00;;;-0.10;82.24
32789;BME280;19141;48.980;8.410;2023-01-29T07:39:22;101502.41;;;-0.05;80.58
32789;BME280;19141;48.980;8.410;2023-01-29T07:41:48;101513.34;;;0.03;80.41
32789;BME280;19141;48.980;8.410;2023-01-29T07:44:15;101511.44;;;0.07;81.40
32789;BME280;19141;48.980;8.410;2023-01-29T07:46:40;101523.19;;;-0.02;80.35
32789;BME280;19141;48.980;8.410;2023-01-29T07:49:05;101531.22;;;0.12;80.37
32789;BME280;19141;48.980;8.410;2023-01-29T07:51:31;101538.19;;;0.13;80.46
32789;BME280;19141;48.980;8.410;2023-01-29T07:53:56;101548.13;;;0.07;79.81
32789;BME280;19141;48.980;8.410;2023-01-29T07:56:22;101541.72;;;0.12;80.38
32789;BME280;19141;48.980;8.410;2023-01-29T07:58:47;101543.28;;;0.16;79.84
32789;BME280;19141;48.980;8.410;2023-01-29T08:01:12;101547.66;;;0.16;79.31
32789;BME280;19141;48.980;8.410;2023-01-29T08:03:38;101546.75;;;0.17;78.86
32789;BME280;19141;48.980;8.410;2023-01-29T08:06:04;101548.56;;;-0.03;79.19
32789;BME280;19141;48.980;8.410;2023-01-29T08:08:29;101551.22;;;0.15;80.38
32789;BME280;19141;48.980;8.410;2023-01-29T08:10:55;101546.06;;;0.13;78.06
32789;BME280;19141;48.980;8.410;2023-01-29T08:13:20;101550.97;;;0.19;78.61
32789;BME280;19141;48.980;8.410;2023-01-29T08:15:46;101550.97;;;0.19;77.54
32789;BME280;19141;48.980;8.410;2023-01-29T08:18:12;101551.69;;;0.23;78.98
32789;BME280;19141;48.980;8.410;2023-01-29T08:20:38;101547.06;;;0.28;80.47
32789;BME280;19141;48.980;8.410;2023-01-29T08:23:06;101550.75;;;0.24;80.10
32789;BME280;19141;48.980;8.410;2023-01-29T08:25:32;101555.84;;;0.27;79.21
32789;BME280;19141;48.980;8.410;2023-01-29T08:27:59;101555.31;;;0.20;77.96
32789;BME280;19141;48.980;8.410;2023-01-29T08:30:27;101562.47;;;0.17;78.63
32789;BME280;19141;48.980;8.410;2023-01-29T08:32:52;101558.78;;;0.21;78.32
32789;BME280;19141;48.980;8.410;2023-01-29T08:35:18;101556.63;;;0.29;78.75
32789;BME280;19141;48.980;8.410;2023-01-29T08:37:43;101559.88;;;0.34;77.96
32789;BME280;19141;48.980;8.410;2023-01-29T08:40:09;101556.72;;;0.28;77.41
32789;BME280;19141;48.980;8.410;2023-01-29T08:42:36;101554.53;;;0.36;77.99
32789;BME280;19141;48.980;8.410;2023-01-29T08:45:02;101561.34;;;0.40;78.69
32789;BME280;19141;48.980;8.410;2023-01-29T08:47:27;101560.56;;;0.38;76.73
32789;BME280;19141;48.980;8.410;2023-01-29T08:49:52;101560.84;;;0.32;77.89
32789;BME280;19141;48.980;8.410;2023-01-29T08:52:18;101555.63;;;0.49;77.39
32789;BME280;19141;48.980;8.410;2023-01-29T08:54:43;101556.88;;;0.59;76.24
32789;BME280;19141;48.980;8.410;2023-01-29T08:57:09;101549.06;;;0.58;78.18
32789;BME280;19141;48.980;8.410;2023-01-29T08:59:34;101545.44;;;0.77;78.35
32789;BME280;19141;48.980;8.410;2023-01-29T09:02:00;101551.72;;;0.91;74.78
32789;BME280;19141;48.980;8.410;2023-01-29T09:04:25;101547.72;;;1.01;74.07
32789;BME280;19141;48.980;8.410;2023-01-29T09:06:50;101544.69;;;1.08;72.24
32789;BME280;19141;48.980;8.410;2023-01-29T09:09:16;101551.81;;;1.22;71.92
32789;BME280;19141;48.980;8.410;2023-01-29T09:11:42;101548.28;;;1.23;70.90
32789;BME280;19141;48.980;8.410;2023-01-29T09:14:08;101552.94;;;1.18;70.99
32789;BME280;19141;48.980;8.410;2023-01-29T09:16:36;101557.28;;;1.35;69.66
32789;BME280;19141;48.980;8.410;2023-01-29T09:19:01;101563.38;;;1.35;70.20
32789;BME280;19141;48.980;8.410;2023-01-29T09:21:27;101566.44;;;1.44;70.03
32789;BME280;19141;48.980;8.410;2023-01-29T09:23:52;101568.91;;;1.47;69.94
32789;BME280;19141;48.980;8.410;2023-01-29T09:26:18;101566.88;;;1.68;69.13
32789;BME280;19141;48.980;8.410;2023-01-29T09:28:43;101560.88;;;1.81;68.01
32789;BME280;19141;48.980;8.410;2023-01-29T09:31:09;101555.78;;;1.78;68.69
32789;BME280;19141;48.980;8.410;2023-01-29T09:33:34;101551.63;;;1.90;67.82
32789;BME280;19141;48.980;8.410;2023-01-29T09:36:01;101540.03;;;1.78;67.99
32789;BME280;19141;48.980;8.410;2023-01-29T09:38:27;101527.38;;;1.85;68.99
32789;BME280;19141;48.980;8.410;2023-01-29T09:43:50;101499.94;;;2.21;65.71
32789;BME280;19141;48.980;8.410;2023-01-29T09:46:36;101494.59;;;2.22;65.45
32789;BME280;19141;48.980;8.410;2023-01-29T09:49:21;101504.97;;;2.39;64.37
32789;BME280;19141;48.980;8.410;2023-01-29T09:51:52;101501.88;;;2.47;63.89
32789;BME280;19141;48.980;8.410;2023-01-29T09:54:28;101503.78;;;2.59;62.86
32789;BME280;19141;48.980;8.410;2023-01-29T09:56:55;101505.69;;;2.86;63.49
32789;BME280;19141;48.980;8.410;2023-01-29T09:59:23;101503.16;;;2.84;62.47
32789;BME280;19141;48.980;8.410;2023-01-29T10:02:00;101505.25;;;3.08;62.36
32789;BME280;19141;48.980;8.410;2023-01-29T10:10:05;101498.06;;;3.24;61.31
32789;BME280;19141;48.980;8.410;2023-01-29T10:23:37;101500.84;;;3.49;60.04
32789;BME280;19141;48.980;8.410;2023-01-29T10:26:09;101508.66;;;3.65;60.66
32789;BME280;19141;48.980;8.410;2023-01-29T10:28:43;101516.44;;;3.67;60.89
32789;BME280;19141;48.980;8.410;2023-01-29T10:31:29;101503.91;;;3.29;62.91
32789;BME280;19141;48.980;8.410;2023-01-29T10:34:01;101509.25;;;2.99;63.44
32789;BME280;19141;48.980;8.410;2023-01-29T10:39:00;101519.72;;;3.15;61.63
32789;BME280;19141;48.980;8.410;2023-01-29T10:44:17;101521.41;;;3.30;61.00
32789;BME280;19141;48.980;8.410;2023-01-29T10:49:40;101522.22;;;3.59;61.85
32789;BME280;19141;48.980;8.410;2023-01-29T10:52:20;101531.75;;;3.19;60.94
32789;BME280;19141;48.980;8.410;2023-01-29T10:54:57;101544.53;;;2.82;61.79
32789;BME280;19141;48.980;8.410;2023-01-29T11:00:24;101517.25;;;2.97;61.98
32789;BME280;19141;48.980;8.410;2023-01-29T11:02:51;101511.47;;;3.07;61.64
32789;BME280;19141;48.980;8.410;2023-01-29T11:05:24;101500.53;;;3.27;61.33
32789;BME280;19141;48.980;8.410;2023-01-29T11:08:11;101498.28;;;3.21;61.74
32789;BME280;19141;48.980;8.410;2023-01-29T11:10:49;101492.81;;;3.24;64.31
32789;BME280;19141;48.980;8.410;2023-01-29T11:13:20;101478.25;;;3.33;64.35
32789;BME280;19141;48.980;8.410;2023-01-29T11:15:50;101479.22;;;3.44;61.43
32789;BME280;19141;48.980;8.410;2023-01-29T11:18:16;101469.38;;;3.19;63.04
32789;BME280;19141;48.980;8.410;2023-01-29T11:20:43;101472.81;;;3.48;62.14
32789;BME280;19141;48.980;8.410;2023-01-29T11:23:30;101465.53;;;3.39;61.64
32789;BME280;19141;48.980;8.410;2023-01-29T11:25:57;101459.47;;;3.37;59.96
32789;BME280;19141;48.980;8.410;2023-01-29T11:28:43;101458.91;;;4.00;60.11
32789;BME280;19141;48.980;8.410;2023-01-29T11:31:16;101458.59;;;4.05;59.92
32789;BME280;19141;48.980;8.410;2023-01-29T11:33:42;101455.59;;;4.75;57.16
32789;BME280;19141;48.980;8.410;2023-01-29T11:36:34;101449.88;;;4.81;55.07
32789;BME280;19141;48.980;8.410;2023-01-29T11:39:20;101451.16;;;5.37;54.24
32789;BME280;19141;48.980;8.410;2023-01-29T11:44:32;101442.88;;;6.03;55.61
32789;BME280;19141;48.980;8.410;2023-01-29T11:47:10;101431.16;;;6.29;53.89
32789;BME280;19141;48.980;8.410;2023-01-29T11:49:37;101431.81;;;5.85;54.55
32789;BME280;19141;48.980;8.410;2023-01-29T11:52:07;101427.88;;;6.14;52.35
32789;BME280;19141;48.980;8.410;2023-01-29T11:54:56;101423.56;;;6.13;52.20
32789;BME280;19141;48.980;8.410;2023-01-29T11:57:27;101402.09;;;7.51;49.87
32789;BME280;19141;48.980;8.410;2023-01-29T11:59:57;101403.38;;;7.24;50.95
32789;BME280;19141;48.980;8.410;2023-01-29T12:02:30;101399.59;;;8.23;47.70
32789;BME280;19141;48.980;8.410;2023-01-29T12:05:00;101400.28;;;8.36;48.43
32789;BME280;19141;48.980;8.410;2023-01-29T12:07:27;101393.00;;;7.97;47.06
32789;BME280;19141;48.980;8.410;2023-01-29T12:09:56;101392.84;;;8.19;47.10
32789;BME280;19141;48.980;8.410;2023-01-29T12:12:34;101392.03;;;7.33;47.33
32789;BME280;19141;48.980;8.410;2023-01-29T12:15:24;101380.09;;;8.13;46.85
32789;BME280;19141;48.980;8.410;2023-01-29T12:18:12;101374.47;;;9.29;44.15
32789;BME280;19141;48.980;8.410;2023-01-29T12:20:46;101370.53;;;7.80;47.20
32789;BME280;19141;48.980;8.410;2023-01-29T12:26:03;101363.34;;;6.73;49.92
32789;BME280;19141;48.980;8.410;2023-01-29T12:28:43;101352.63;;;6.74;49.64
32789;BME280;19141;48.980;8.410;2023-01-29T12:33:54;101346.13;;;6.34;50.84
32789;BME280;19141;48.980;8.410;2023-01-29T12:36:29;101339.50;;;6.62;50.46
32789;BME280;19141;48.980;8.410;2023-01-29T12:38:56;101332.03;;;6.78;49.90
32789;BME280;19141;48.980;8.410;2023-01-29T12:41:35;101329.41;;;6.44;50.43
32789;BME280;19141;48.980;8.410;2023-01-29T12:44:10;101323.22;;;6.77;49.35
32789;BME280;19141;48.980;8.410;2023-01-29T12:46:45;101319.16;;;6.51;48.59
32789;BME280;19141;48.980;8.410;2023-01-29T12:49:17;101312.97;;;6.95;49.72
32789;BME280;19141;48.980;8.410;2023-01-29T12:52:01;101311.97;;;7.19;48.15
32789;BME280;19141;48.980;8.410;2023-01-29T12:54:51;101308.72;;;6.72;48.60
32789;BME280;19141;48.980;8.410;2023-01-29T12:57:31;101291.06;;;6.93;49.05
32789;BME280;19141;48.980;8.410;2023-01-29T13:00:04;101293.88;;;6.80;50.00
32789;BME280;19141;48.980;8.410;2023-01-29T13:02:48;101276.84;;;6.40;51.88
32789;BME280;19141;48.980;8.410;2023-01-29T13:05:23;101286.69;;;6.49;51.41
32789;BME280;19141;48.980;8.410;2023-01-29T13:07:58;101288.88;;;6.33;52.04
32789;BME280;19141;48.980;8.410;2023-01-29T13:10:32;101276.00;;;6.28;52.69
32789;BME280;19141;48.980;8.410;2023-01-29T13:13:11;101277.53;;;5.97;52.35
32789;BME280;19141;48.980;8.410;2023-01-29T13:15:39;101268.63;;;5.98;52.60
32789;BME280;19141;48.980;8.410;2023-01-29T13:18:53;101276.53;;;5.87;51.87
32789;BME280;19141;48.980;8.410;2023-01-29T13:20:54;101264.94;;;6.23;52.90
32789;BME280;19141;48.980;8.410;2023-01-29T13:23:21;101278.38;;;6.31;51.97
32789;BME280;19141;48.980;8.410;2023-01-29T13:25:52;101280.44;;;6.05;52.97
32789;BME280;19141;48.980;8.410;2023-01-29T13:28:20;101283.09;;;6.28;52.90
32789;BME280;19141;48.980;8.410;2023-01-29T13:33:42;101271.31;;;6.20;52.78
32789;BME280;19141;48.980;8.410;2023-01-29T13:36:18;101281.72;;;5.88;52.56
32789;BME280;19141;48.980;8.410;2023-01-29T13:38:54;101283.03;;;5.83;52.38
32789;BME280;19141;48.980;8.410;2023-01-29T13:41:30;101272.72;;;5.91;53.26
32789;BME280;19141;48.980;8.410;2023-01-29T13:43:57;101283.22;;;5.33;53.83
32789;BME280;19141;48.980;8.410;2023-01-29T13:46:22;101291.78;;;5.37;54.53
32789;BME280;19141;48.980;8.410;2023-01-29T13:48:49;101293.47;;;5.38;55.60
32789;BME280;19141;48.980;8.410;2023-01-29T13:51:21;101298.47;;;5.30;55.59
32789;BME280;19141;48.980;8.410;2023-01-29T13:53:59;101291.97;;;4.99;56.37
32789;BME280;19141;48.980;8.410;2023-01-29T13:56:41;101291.47;;;5.17;56.01
32789;BME280;19141;48.980;8.410;2023-01-29T13:59:20;101282.06;;;4.89;56.74
32789;BME280;19141;48.980;8.410;2023-01-29T14:06:46;101267.06;;;4.90;57.72
32789;BME280;19141;48.980;8.410;2023-01-29T14:12:03;101260.31;;;4.86;56.75
32789;BME280;19141;48.980;8.410;2023-01-29T14:15:01;101261.94;;;4.76;58.39
32789;BME280;19141;48.980;8.410;2023-01-29T14:17:28;101253.22;;;4.62;56.25
32789;BME280;19141;48.980;8.410;2023-01-29T14:20:03;101255.56;;;4.54;57.45
32789;BME280;19141;48.980;8.410;2023-01-29T14:22:41;101252.59;;;4.59;58.05
32789;BME280;19141;48.980;8.410;2023-01-29T14:25:15;101253.00;;;4.66;57.77
32789;BME280;19141;48.980;8.410;2023-01-29T14:27:46;101257.31;;;4.67;57.84
32789;BME280;19141;48.980;8.410;2023-01-29T14:30:16;101259.16;;;4.53;57.39
32789;BME280;19141;48.980;8.410;2023-01-29T14:32:47;101259.41;;;4.50;56.80
32789;BME280;19141;48.980;8.410;2023-01-29T14:35:21;101244.41;;;4.51;57.93
32789;BME280;19141;48.980;8.410;2023-01-29T14:37:51;101248.03;;;4.37;57.82
32789;BME280;19141;48.980;8.410;2023-01-29T14:48:04;101247.53;;;4.06;59.04
32789;BME280;19141;48.980;8.410;2023-01-29T14:50:50;101243.84;;;3.84;60.04
32789;BME280;19141;48.980;8.410;2023-01-29T14:53:27;101245.75;;;3.94;58.76
32789;BME280;19141;48.980;8.410;2023-01-29T14:56:00;101250.38;;;3.78;59.83
32789;BME280;19141;48.980;8.410;2023-01-29T14:58:36;101259.03;;;3.67;60.30
32789;BME280;19141;48.980;8.410;2023-01-29T15:01:04;101260.28;;;3.62;60.08
32789;BME280;19141;48.980;8.410;2023-01-29T15:03:52;101257.13;;;3.57;58.84
32789;BME280;19141;48.980;8.410;2023-01-29T15:06:51;101250.03;;;3.44;60.44
32789;BME280;19141;48.980;8.410;2023-01-29T15:09:45;101247.63;;;3.41;61.39
32789;BME280;19141;48.980;8.410;2023-01-29T15:12:20;101241.28;;;3.44;62.00
32789;BME280;19141;48.980;8.410;2023-01-29T15:15:39;101246.97;;;3.38;62.30
32789;BME280;19141;48.980;8.410;2023-01-29T15:17:41;101248.66;;;3.26;61.65
32789;BME280;19141;48.980;8.410;2023-01-29T15:22:54;101256.13;;;3.32;62.29
32789;BME280;19141;48.980;8.410;2023-01-29T15:25:20;101258.13;;;3.29;62.32
32789;BME280;19141;48.980;8.410;2023-01-29T15:27:46;101255.03;;;3.09;62.20
32789;BME280;19141;48.980;8.410;2023-01-29T15:30:19;101266.09;;;3.14;62.33
32789;BME280;19141;48.980;8.410;2023-01-29T15:32:45;101256.28;;;3.04;62.66
32789;BME280;19141;48.980;8.410;2023-01-29T15:35:36;101257.06;;;2.91;63.49
32789;BME280;19141;48.980;8.410;2023-01-29T15:40:37;101253.47;;;2.92;63.86
32789;BME280;19141;48.980;8.410;2023-01-29T15:43:17;101260.47;;;2.79;63.43
32789;BME280;19141;48.980;8.410;2023-01-29T15:45:43;101248.03;;;2.68;63.90
32789;BME280;19141;48.980;8.410;2023-01-29T15:48:15;101249.72;;;2.69;65.24
32789;BME280;19141;48.980;8.410;2023-01-29T15:50:43;101249.06;;;2.66;64.42
32789;BME280;19141;48.980;8.410;2023-01-29T15:53:15;101241.03;;;2.55;64.47
32789;BME280;19141;48.980;8.410;2023-01-29T15:55:42;101248.03;;;2.54;65.84
32789;BME280;19141;48.980;8.410;2023-01-29T15:58:17;101242.16;;;2.51;66.37
32789;BME280;19141;48.980;8.410;2023-01-29T16:00:51;101243.94;;;2.50;66.93
32789;BME280;19141;48.980;8.410;2023-01-29T16:03:22;101248.47;;;2.48;67.19
32789;BME280;19141;48.980;8.410;2023-01-29T16:05:50;101246.22;;;2.42;68.00
32789;BME280;19141;48.980;8.410;2023-01-29T16:08:17;101250.06;;;2.36;66.92
32789;BME280;19141;48.980;8.410;2023-01-29T16:10:43;101254.03;;;2.29;68.30
32789;BME280;19141;48.980;8.410;2023-01-29T16:13:23;101248.59;;;2.18;69.95
32789;BME280;19141;48.980;8.410;2023-01-29T16:15:58;101249.69;;;2.14;69.93
32789;BME280;19141;48.980;8.410;2023-01-29T16:18:37;101251.03;;;2.07;70.56
32789;BME280;19141;48.980;8.410;2023-01-29T16:21:25;101258.53;;;1.99;71.56
32789;BME280;19141;48.980;8.410;2023-01-29T16:24:01;101260.50;;;1.95;71.23
32789;BME280;19141;48.980;8.410;2023-01-29T16:26:33;101253.47;;;1.96;72.26
32789;BME280;19141;48.980;8.410;2023-01-29T16:29:08;101256.84;;;1.98;73.00
32789;BME280;19141;48.980;8.410;2023-01-29T16:31:36;101261.44;;;1.94;73.56
32789;BME280;19141;48.980;8.410;2023-01-29T16:34:13;101256.38;;;1.91;74.56
32789;BME280;19141;48.980;8.410;2023-01-29T16:36:45;101260.50;;;1.95;73.38
32789;BME280;19141;48.980;8.410;2023-01-29T16:39:20;101265.84;;;1.94;73.79
32789;BME280;19141;48.980;8.410;2023-01-29T16:47:39;101255.94;;;1.54;75.32
32789;BME280;19141;48.980;8.410;2023-01-29T16:50:31;101254.38;;;1.52;74.70
32789;BME280;19141;48.980;8.410;2023-01-29T16:55:38;101257.13;;;1.34;75.63
32789;BME280;19141;48.980;8.410;2023-01-29T16:58:25;101246.22;;;1.26;76.83
32789;BME280;19141;48.980;8.410;2023-01-29T17:00:57;101253.53;;;1.21;77.32
32789;BME280;19141;48.980;8.410;2023-01-29T17:03:25;101246.19;;;1.12;78.19
32789;BME280;19141;48.980;8.410;2023-01-29T17:05:52;101252.72;;;1.05;78.27
32789;BME280;19141;48.980;8.410;2023-01-29T17:08:25;101251.44;;;0.96;78.68
32789;BME280;19141;48.980;8.410;2023-01-29T17:10:51;101252.63;;;0.91;79.03
32789;BME280;19141;48.980;8.410;2023-01-29T17:13:24;101248.53;;;0.87;79.27
32789;BME280;19141;48.980;8.410;2023-01-29T17:15:51;101252.34;;;0.81;79.51
32789;BME280;19141;48.980;8.410;2023-01-29T17:18:18;101246.59;;;0.74;80.19
32789;BME280;19141;48.980;8.410;2023-01-29T17:20:44;101243.47;;;0.68;81.22
32789;BME280;19141;48.980;8.410;2023-01-29T17:23:09;101241.09;;;0.63;81.04
32789;BME280;19141;48.980;8.410;2023-01-29T17:25:35;101238.66;;;0.60;81.60
32789;BME280;19141;48.980;8.410;2023-01-29T17:28:01;101247.25;;;0.62;82.49
32789;BME280;19141;48.980;8.410;2023-01-29T17:30:30;101240.47;;;0.58;82.74
32789;BME280;19141;48.980;8.410;2023-01-29T17:32:59;101237.13;;;0.56;83.21
32789;BME280;19141;48.980;8.410;2023-01-29T17:35:27;101233.84;;;0.52;82.92
32789;BME280;19141;48.980;8.410;2023-01-29T17:37:52;101233.88;;;0.51;83.55
32789;BME280;19141;48.980;8.410;2023-01-29T17:40:31;101233.22;;;0.47;84.77
32789;BME280;19141;48.980;8.410;2023-01-29T17:42:57;101233.56;;;0.41;85.03
32789;BME280;19141;48.980;8.410;2023-01-29T17:45:23;101237.19;;;0.39;85.34
32789;BME280;19141;48.980;8.410;2023-01-29T17:47:49;101224.44;;;0.33;85.37
32789;BME280;19141;48.980;8.410;2023-01-29T17:50:21;101235.59;;;0.36;85.91
32789;BME280;19141;48.980;8.410;2023-01-29T17:52:47;101243.63;;;0.33;85.98
32789;BME280;19141;48.980;8.410;2023-01-29T17:55:13;101246.50;;;0.29;86.30
32789;BME280;19141;48.980;8.410;2023-01-29T17:57:38;101251.56;;;0.32;86.61
32789;BME280;19141;48.980;8.410;2023-01-29T18:00:19;101257.31;;;0.22;86.61
32789;BME280;19141;48.980;8.410;2023-01-29T18:02:45;101261.00;;;0.18;87.20
32789;BME280;19141;48.980;8.410;2023-01-29T18:05:12;101245.78;;;0.09;88.00
32789;BME280;19141;48.980;8.410;2023-01-29T18:07:39;101258.72;;;0.12;87.49
32789;BME280;19141;48.980;8.410;2023-01-29T18:10:06;101244.00;;;0.10;87.97
32789;BME280;19141;48.980;8.410;2023-01-29T18:12:35;101248.56;;;0.06;88.60
32789;BME280;19141;48.980;8.410;2023-01-29T18:15:01;101253.78;;;0.06;88.71
32789;BME280;19141;48.980;8.410;2023-01-29T18:17:26;101247.97;;;0.01;88.70
32789;BME280;19141;48.980;8.410;2023-01-29T18:19:52;101252.19;;;0.04;89.32
32789;BME280;19141;48.980;8.410;2023-01-29T18:22:19;101250.00;;;-0.04;88.85
32789;BME280;19141;48.980;8.410;2023-01-29T18:24:45;101243.06;;;-0.05;89.12
32789;BME280;19141;48.980;8.410;2023-01-29T18:27:10;101242.22;;;-0.06;88.98
32789;BME280;19141;48.980;8.410;2023-01-29T18:29:35;101242.97;;;-0.04;89.60
32789;BME280;19141;48.980;8.410;2023-01-29T18:32:01;101241.38;;;-0.06;89.56
32789;BME280;19141;48.980;8.410;2023-01-29T18:34:26;101244.00;;;-0.06;88.99
32789;BME280;19141;48.980;8.410;2023-01-29T18:36:52;101252.63;;;-0.04;89.18
32789;BME280;19141;48.980;8.410;2023-01-29T18:39:17;101255.22;;;-0.04;89.99
32789;BME280;19141;48.980;8.410;2023-01-29T18:41:42;101257.00;;;-0.05;89.52
32789;BME280;19141;48.980;8.410;2023-01-29T18:44:11;101259.44;;;-0.02;88.88
32789;BME280;19141;48.980;8.410;2023-01-29T18:46:36;101264.78;;;-0.03;89.59
32789;BME280;19141;48.980;8.410;2023-01-29T18:49:02;101263.84;;;-0.02;89.47
32789;BME280;19141;48.980;8.410;2023-01-29T18:51:27;101270.19;;;-0.06;89.75
32789;BME280;19141;48.980;8.410;2023-01-29T18:53:52;101271.88;;;-0.05;90.35
32789;BME280;19141;48.980;8.410;2023-01-29T18:56:18;101260.78;;;-0.10;89.68
32789;BME280;19141;48.980;8.410;2023-01-29T18:58:44;101270.94;;;-0.04;89.59
32789;BME280;19141;48.980;8.410;2023-01-29T19:01:12;101275.25;;;-0.03;89.19
32789;BME280;19141;48.980;8.410;2023-01-29T19:03:39;101278.28;;;-0.11;89.63
32789;BME280;19141;48.980;8.410;2023-01-29T19:06:06;101272.88;;;-0.08;89.90
32789;BME280;19141;48.980;8.410;2023-01-29T19:08:33;101277.34;;;-0.10;90.41
32789;BME280;19141;48.980;8.410;2023-01-29T19:10:59;101277.53;;;-0.13;90.52
32789;BME280;19141;48.980;8.410;2023-01-29T19:13:34;101279.44;;;-0.16;90.20
32789;BME280;19141;48.980;8.410;2023-01-29T19:15:59;101275.44;;;-0.23;90.89
32789;BME280;19141;48.980;8.410;2023-01-29T19:18:26;101275.06;;;-0.33;90.96
32789;BME280;19141;48.980;8.410;2023-01-29T19:20:52;101271.38;;;-0.29;90.71
32789;BME280;19141;48.980;8.410;2023-01-29T19:23:18;101278.56;;;-0.33;91.22
32789;BME280;19141;48.980;8.410;2023-01-29T19:25:44;101270.22;;;-0.41;91.63
32789;BME280;19141;48.980;8.410;2023-01-29T19:28:10;101265.69;;;-0.37;91.41
32789;BME280;19141;48.980;8.410;2023-01-29T19:30:35;101262.53;;;-0.44;92.09
32789;BME280;19141;48.980;8.410;2023-01-29T19:33:01;101259.38;;;-0.50;93.22
32789;BME280;19141;48.980;8.410;2023-01-29T19:35:26;101262.09;;;-0.52;92.54
32789;BME280;19141;48.980;8.410;2023-01-29T19:37:52;101257.16;;;-0.58;92.65
32789;BME280;19141;48.980;8.410;2023-01-29T19:40:18;101243.69;;;-0.68;92.69
32789;BME280;19141;48.980;8.410;2023-01-29T19:42:45;101247.44;;;-0.73;93.04
32789;BME280;19141;48.980;8.410;2023-01-29T19:45:11;101233.19;;;-0.85;93.62